Latest Weather Observations for Hervey Bay

IDQ60801

Issued at 11:02 am EST Tuesday 19 June 2018 (issued every 10 minutes, with the page automatically refreshed every 10 minutes)

About weather observations | Map of weather stations | Latest weather observations for QLD | Other Formats
Station Details ID: 040405 Name: HERVEY BAY AIRPORT Lat: -25.32 Lon: 152.88 Height: 12.98 m
Data from the previous 72 hours. | See also: Recent months at Hervey Bay
Date/Time
EST
Temp
°C
App
Temp
°C
Dew
Point
°C
Rel
Hum
%
Delta-T
°C
Wind Press
QNH
hPa
Press
MSL
hPa
Rain since
9am
mm
Dir  Spd
km/h
Gust
km/h
Spd
kts
Gust
kts
19/11:00am 16.3 11.4 4.0 44 5.7 SW 19 28 10 15 1020.2 1020.2 -
19/10:30am 15.8 10.8 4.5 47 5.3 SW 20 30 11 16 1020.3 1020.3 -
19/09:00am 13.2 9.1 4.4 55 4.0 WSW 15 26 8 14 1020.5 1020.5 0.0
19/08:30am 12.3 7.8 4.3 58 3.6 WSW 17 26 9 14 1020.2 1020.2 0.0
19/08:00am 11.2 7.1 4.2 62 3.1 WSW 15 24 8 13 1020.0 1020.0 0.0
19/07:30am 10.0 6.2 4.0 66 2.6 WSW 13 20 7 11 1020.0 1020.0 0.0
19/07:00am 8.8 4.6 3.8 71 2.2 WSW 15 20 8 11 1019.8 1019.7 0.0
19/06:30am 7.7 4.3 3.9 77 1.6 WSW 11 17 6 9 1019.6 1019.5 0.0
19/06:00am 5.4 2.4 4.1 91 0.5 SW 9 13 5 7 1019.3 1019.2 0.0
19/05:30am 4.3 1.5 2.3 87 0.8 S 6 7 3 4 1019.3 1019.2 0.0
19/05:00am 5.3 2.7 3.0 85 0.9 SSE 6 7 3 4 1019.1 1019.0 0.0
19/04:30am 5.4 2.7 2.9 84 1.0 SW 6 11 3 6 1018.9 1018.8 0.0
19/04:00am 6.3 3.2 3.8 84 1.1 SW 9 11 5 6 1018.8 1018.7 0.0
19/03:30am 5.9 3.3 3.2 83 1.1 E 6 9 3 5 1018.9 1018.8 0.0
19/03:00am 6.0 2.8 3.3 83 1.1 SW 9 15 5 8 1018.8 1018.7 0.0
19/02:30am 6.2 3.9 2.7 78 1.4 W 4 9 2 5 1018.9 1018.8 0.0
19/02:00am 7.7 4.5 3.0 72 2.0 WSW 9 11 5 6 1019.1 1019.0 0.0
19/01:30am 8.1 4.5 3.0 70 2.2 WSW 11 15 6 8 1018.9 1018.8 0.0
19/01:00am 9.0 5.4 2.8 65 2.6 WSW 11 15 6 8 1019.3 1019.2 0.0
19/12:30am 9.1 5.9 2.9 65 2.6 WSW 9 13 5 7 1019.4 1019.3 0.0
19/12:00am 8.7 5.4 2.5 65 2.6 WSW 9 13 5 7 1019.6 1019.5 0.0
 
Date/Time
EST
Temp
°C
App
Temp
°C
Dew
Point
°C
Rel
Hum
%
Delta-T
°C
Wind Press
QNH
hPa
Press
MSL
hPa
Rain since
9am
mm
Dir  Spd
km/h
Gust
km/h
Spd
kts
Gust
kts
18/11:30pm 9.5 5.5 2.6 62 2.9 W 13 17 7 9 1019.6 1019.5 0.0
18/11:00pm 10.3 6.9 1.9 56 3.5 SW 9 13 5 7 1019.8 1019.7 0.0
18/10:30pm 10.9 6.8 2.0 54 3.8 WSW 13 19 7 10 1019.7 1019.6 0.0
18/10:00pm 11.0 6.9 2.1 54 3.8 WSW 13 19 7 10 1019.8 1019.7 0.0
18/09:30pm 11.2 7.1 2.0 53 3.9 WSW 13 17 7 9 1019.8 1019.7 0.0
18/09:00pm 11.4 7.2 1.9 52 4.0 WSW 13 17 7 9 1019.7 1019.6 0.0
18/08:30pm 10.2 6.1 2.3 58 3.4 W 13 17 7 9 1019.6 1019.5 0.0
18/08:00pm 8.6 5.0 3.2 69 2.3 WSW 11 13 6 7 1019.7 1019.6 0.0
18/07:30pm 10.1 6.8 2.7 60 3.2 W 9 13 5 7 1019.6 1019.5 0.0
18/07:00pm 9.9 6.9 1.8 57 3.4 W 7 9 4 5 1019.2 1019.1 0.0
18/06:30pm 11.7 7.9 1.6 50 4.3 W 11 13 6 7 1018.9 1018.8 0.0
18/06:00pm 12.6 8.8 1.6 47 4.7 W 11 15 6 8 1018.4 1018.3 0.0
18/05:30pm 13.4 9.1 1.1 43 5.2 WSW 13 15 7 8 1018.0 1017.9 0.0
18/05:00pm 14.9 10.5 0.4 37 6.2 WSW 13 15 7 8 1017.7 1017.6 0.0
18/04:30pm 17.1 12.3 -0.1 31 7.4 WSW 15 22 8 12 1017.4 1017.3 0.0
18/04:00pm 18.0 13.5 -0.3 29 7.9 WSW 13 20 7 11 1017.1 1017.0 0.0
18/03:30pm 18.5 12.9 -0.3 28 8.1 SW 19 30 10 16 1017.0 1016.9 0.0
18/03:00pm 18.6 13.3 -0.7 27 8.3 WSW 17 30 9 16 1016.9 1016.8 0.0
18/02:30pm 18.4 12.7 -0.9 27 8.3 WSW 19 30 10 16 1017.0 1016.9 0.0
18/02:00pm 18.5 12.9 -0.3 28 8.1 WSW 19 28 10 15 1017.3 1017.2 0.0
18/01:30pm 17.8 12.1 -0.9 28 8.0 SW 19 32 10 17 1017.7 1017.6 0.0
18/01:00pm 17.4 11.8 -0.3 30 7.6 W 19 30 10 16 1017.9 1017.8 0.0
18/12:30pm 16.9 11.1 0.1 32 7.2 W 20 30 11 16 1018.5 1018.4 0.0
18/12:00pm 16.6 11.6 1.5 36 6.7 WSW 17 28 9 15 1019.0 1018.9 0.0
18/11:30am 16.0 10.4 1.3 37 6.4 SW 20 32 11 17 1019.6 1019.5 0.0
18/11:00am 15.1 8.8 1.6 40 5.9 WSW 24 32 13 17 1019.9 1019.8 0.0
18/10:30am 14.6 7.9 1.5 41 5.7 SW 26 41 14 22 1020.3 1020.3 0.0
18/10:00am 14.0 8.2 2.3 45 5.1 SW 22 35 12 19 1020.4 1020.4 0.0
18/09:30am 12.9 7.8 3.0 51 4.4 SW 19 30 10 16 1020.7 1020.7 0.0
18/09:00am 11.4 7.3 2.4 54 3.9 SW 13 20 7 11 1021.1 1021.1 0.0
18/08:30am 10.4 6.2 1.8 55 3.6 SW 13 19 7 10 1021.2 1021.2 0.0
18/08:00am 9.5 5.3 1.7 58 3.2 WSW 13 17 7 9 1021.3 1021.3 0.0
18/07:30am 7.8 4.4 2.1 67 2.4 WSW 9 11 5 6 1021.1 1021.1 0.0
18/07:00am 5.5 2.1 1.8 77 1.5 WSW 9 15 5 8 1020.9 1020.9 0.0
18/06:30am 4.8 1.4 1.7 80 1.2 SW 9 11 5 6 1020.8 1020.8 0.0
18/06:00am 3.4 0.0 1.9 90 0.6 SW 9 13 5 7 1020.3 1020.3 0.0
18/05:30am 2.6 0.8 1.1 90 0.6 CALM 0 0 0 0 1020.0 1020.0 0.0
18/05:00am 3.1 1.4 1.6 90 0.6 CALM 0 6 0 3 1020.1 1020.1 0.0
18/04:30am 3.6 1.9 2.1 90 0.6 CALM 0 0 0 0 1020.0 1020.0 0.0
18/04:00am 3.7 1.0 2.4 91 0.5 WNW 6 7 3 4 1020.2 1020.2 0.0
18/03:30am 3.6 1.9 2.1 90 0.6 CALM 0 6 0 3 1020.3 1020.3 0.0
18/03:00am 4.0 1.1 2.7 91 0.5 WSW 7 7 4 4 1020.3 1020.3 0.0
18/02:30am 4.4 1.7 2.9 90 0.6 WSW 6 9 3 5 1020.4 1020.4 0.0
18/02:00am 4.8 2.0 3.3 90 0.6 SW 7 9 4 5 1020.3 1020.3 0.0
18/01:30am 5.2 2.7 3.5 89 0.7 WSW 6 9 3 5 1020.6 1020.6 0.0
18/01:00am 6.4 3.5 4.7 89 0.7 SW 9 11 5 6 1020.6 1020.6 0.0
18/12:30am 6.9 4.1 3.3 78 1.5 SW 7 9 4 5 1020.7 1020.7 0.0
18/12:00am 8.1 5.2 2.4 67 2.4 SW 7 9 4 5 1020.8 1020.8 0.0
 
Date/Time
EST
Temp
°C
App
Temp
°C
Dew
Point
°C
Rel
Hum
%
Delta-T
°C
Wind Press
QNH
hPa
Press
MSL
hPa
Rain since
9am
mm
Dir  Spd
km/h
Gust
km/h
Spd
kts
Gust
kts
17/11:30pm 7.2 4.0 3.1 75 1.7 WSW 9 13 5 7 1020.7 1020.7 0.0
17/11:00pm 8.8 5.7 3.4 69 2.3 SW 9 13 5 7 1020.9 1020.9 0.0
17/10:30pm 9.4 5.7 2.3 61 3.0 WSW 11 17 6 9 1020.8 1020.8 0.0
17/10:00pm 8.9 5.4 3.7 70 2.2 WSW 11 15 6 8 1020.6 1020.6 0.0
17/09:30pm 7.3 4.7 5.9 91 0.6 WSW 9 11 5 6 1020.5 1020.5 0.0
17/09:00pm 7.1 4.4 5.6 90 0.7 WSW 9 11 5 6 1020.5 1020.5 0.0
17/08:30pm 7.6 5.6 6.1 90 0.7 WSW 6 7 3 4 1020.3 1020.3 0.0
17/08:00pm 7.9 5.7 6.4 90 0.7 WSW 7 11 4 6 1020.0 1020.0 0.0
17/07:30pm 8.0 7.1 6.1 88 0.9 CALM 0 0 0 0 1020.1 1020.1 0.0
17/07:00pm 8.9 8.2 6.9 87 0.9 CALM 0 0 0 0 1019.6 1019.5 0.0
17/06:30pm 9.4 8.8 7.2 86 1.0 CALM 0 0 0 0 1019.1 1019.0 0.0
17/06:00pm 10.4 9.8 7.6 83 1.3 CALM 0 2 0 1 1018.9 1018.8 0.0
17/05:30pm 12.1 11.6 8.0 76 2.0 CALM 0 0 0 0 1018.4 1018.3 0.0
17/05:00pm 14.7 13.3 8.9 68 2.9 SW 6 7 3 4 1017.9 1017.8 0.0
17/04:30pm 18.9 16.9 6.4 44 6.2 W 6 7 3 4 1017.7 1017.6 0.0
17/04:00pm 19.0 15.9 3.6 36 7.2 SW 9 11 5 6 1017.5 1017.4 0.0
17/03:30pm 19.8 16.4 3.9 35 7.6 WSW 11 17 6 9 1017.3 1017.2 0.0
17/03:00pm 20.1 16.6 3.3 33 7.9 SW 11 17 6 9 1017.1 1017.0 0.0
17/02:30pm 19.8 15.5 3.1 33 7.8 WSW 15 24 8 13 1017.2 1017.1 0.0
17/02:00pm 19.1 15.2 3.3 35 7.4 W 13 20 7 11 1017.3 1017.2 0.0
17/01:30pm 19.3 14.7 3.9 36 7.3 WSW 17 24 9 13 1017.6 1017.5 0.0
17/01:00pm 19.4 14.9 4.0 36 7.3 WSW 17 28 9 15 1018.0 1017.9 0.0
17/12:30pm 18.8 14.4 4.6 39 6.8 SW 17 24 9 13 1018.5 1018.4 0.0
17/12:00pm 18.1 13.6 4.3 40 6.5 SW 17 22 9 12 1019.2 1019.1 0.0
17/11:30am 17.8 14.1 4.7 42 6.2 SW 13 20 7 11 1019.9 1019.8 0.0
17/11:00am 17.8 12.9 4.0 40 6.5 SW 19 28 10 15 1020.3 1020.3 0.0
17/10:30am 17.5 12.6 4.1 41 6.3 SSW 19 26 10 14 1020.7 1020.7 0.0
17/10:00am 16.7 12.0 5.0 46 5.5 SW 19 30 10 16 1020.9 1020.9 0.0
17/09:30am 15.8 11.7 6.3 53 4.6 SW 17 22 9 12 1021.0 1021.0 0.0
17/09:00am 14.8 11.0 5.6 54 4.4 SW 15 20 8 11 1021.0 1021.0 0.0
17/08:30am 13.3 10.2 5.7 60 3.6 WSW 11 17 6 9 1020.7 1020.7 0.0
17/08:00am 12.3 8.8 5.5 63 3.1 WSW 13 20 7 11 1020.5 1020.5 0.0
17/07:30am 10.3 8.6 8.2 87 1.0 SW 7 9 4 5 1020.3 1020.3 0.0
17/07:00am 9.6 7.4 7.9 89 0.8 SW 9 11 5 6 1019.8 1019.7 0.0
17/06:30am 9.4 7.2 8.0 91 0.7 SW 9 13 5 7 1019.6 1019.5 0.0
17/06:00am 9.2 7.3 7.5 89 0.8 SW 7 9 4 5 1019.5 1019.4 0.0
17/05:30am 9.8 8.0 8.1 89 0.8 SW 7 11 4 6 1019.0 1018.9 0.0
17/05:00am 10.3 8.7 8.6 89 0.8 SW 7 9 4 5 1018.9 1018.8 0.0
17/04:30am 10.6 9.0 8.7 88 0.9 SW 7 9 4 5 1018.9 1018.8 0.0
17/04:00am 11.0 9.4 8.9 87 1.0 SW 7 11 4 6 1018.9 1018.8 0.0
17/03:30am 11.4 9.7 9.8 90 0.8 SW 9 13 5 7 1018.8 1018.7 0.0
17/03:00am 10.9 9.4 9.3 90 0.8 SSW 7 9 4 5 1018.9 1018.8 0.0
17/02:30am 10.9 9.2 9.8 93 0.6 SSW 9 11 5 6 1019.0 1018.9 0.0
17/02:17am 10.6 10.1 9.4 92 0.6 SSW 2 7 1 4 1018.9 1018.8 0.0
17/02:00am 10.7 10.2 9.5 92 0.6 SSW 2 6 1 3 1019.0 1018.9 0.0
17/01:32am 11.1 10.0 9.9 92 0.6 SSW 6 7 3 4 1019.5 1019.4 0.0
17/01:30am 11.1 10.0 9.9 92 0.6 SSW 6 7 3 4 1019.4 1019.3 0.0
17/01:00am 11.2 9.9 10.0 92 0.6 SW 7 9 4 5 1019.7 1019.6 0.0
17/12:30am 11.5 10.3 10.4 93 0.6 SSW 7 11 4 6 1019.8 1019.7 0.0
17/12:00am 11.0 10.6 9.8 92 0.6 SW 2 9 1 5 1019.9 1019.8 0.0
 
Date/Time
EST
Temp
°C
App
Temp
°C
Dew
Point
°C
Rel
Hum
%
Delta-T
°C
Wind Press
QNH
hPa
Press
MSL
hPa
Rain since
9am
mm
Dir  Spd
km/h
Gust
km/h
Spd
kts
Gust
kts
16/11:30pm 11.1 11.1 9.9 92 0.6 CALM 0 0 0 0 1020.2 1020.2 0.0
16/11:00pm 11.3 11.4 10.0 92 0.7 CALM 0 0 0 0 1020.4 1020.4 0.0
16/10:30pm 11.4 11.5 10.1 92 0.7 CALM 0 0 0 0 1020.5 1020.5 0.0
16/10:00pm 11.3 11.3 9.9 91 0.7 CALM 0 0 0 0 1020.5 1020.5 0.0
16/09:30pm 11.3 11.3 9.7 90 0.8 CALM 0 0 0 0 1020.6 1020.6 0.0
16/09:00pm 11.6 11.6 9.9 89 0.9 CALM 0 0 0 0 1020.4 1020.4 0.0
16/08:30pm 12.1 12.2 10.3 89 0.9 CALM 0 0 0 0 1020.4 1020.4 0.0
16/08:00pm 12.2 12.3 10.3 88 1.0 CALM 0 0 0 0 1020.4 1020.4 0.0
16/07:30pm 12.6 12.8 10.5 87 1.1 CALM 0 0 0 0 1020.2 1020.2 0.0
16/07:00pm 12.7 12.9 10.4 86 1.2 CALM 0 0 0 0 1020.1 1020.1 0.0
16/06:30pm 12.8 12.9 10.2 84 1.3 CALM 0 0 0 0 1019.8 1019.7 0.0
16/06:00pm 13.4 13.5 10.2 81 1.7 CALM 0 0 0 0 1019.4 1019.3 0.0
16/05:30pm 14.5 13.4 10.1 75 2.3 SW 6 9 3 5 1019.0 1018.9 0.0
16/05:00pm 17.0 16.3 9.9 63 3.7 NNE 4 7 2 4 1018.9 1018.8 0.0
16/04:30pm 19.8 17.2 6.2 41 6.8 NNE 9 11 5 6 1018.7 1018.6 0.0
16/04:00pm 21.2 18.2 5.9 37 7.6 NE 11 13 6 7 1018.6 1018.5 0.0
16/03:30pm 21.5 18.5 4.1 32 8.4 ENE 9 13 5 7 1018.5 1018.4 0.0
16/03:00pm 21.6 18.3 4.7 33 8.3 ENE 11 13 6 7 1018.5 1018.4 0.0
16/02:30pm 21.8 19.1 5.7 35 8.1 ESE 9 13 5 7 1018.7 1018.6 0.0
16/02:00pm 21.6 18.2 4.2 32 8.4 ESE 11 15 6 8 1018.9 1018.8 0.0
16/01:30pm 21.6 17.8 3.8 31 8.6 ESE 13 17 7 9 1019.2 1019.1 0.0
16/01:00pm 21.2 17.1 4.3 33 8.2 E 15 20 8 11 1019.6 1019.5 0.0
16/12:30pm 21.5 18.8 5.8 36 7.9 ESE 9 20 5 11 1020.1 1020.1 0.0
16/12:00pm 21.2 18.2 4.3 33 8.2 SSE 9 15 5 8 1020.6 1020.6 0.0
16/11:30am 20.7 17.7 3.9 33 8.1 SE 9 13 5 7 1021.2 1021.2 0.0

Other Formats:

Comma delimited format used in spreadsheet applications
http://www.bom.gov.au/fwo/IDQ60801/IDQ60801.95565.axf

JavaScript Object Notation format (JSON) in row-major order
http://www.bom.gov.au/fwo/IDQ60801/IDQ60801.95565.json